sensor_id;sensor_type;location;lat;lon;timestamp;pressure;altitude;pressure_sealevel;temperature;humidity
30598;BME280;17365;48.878;8.334;2023-01-28T00:01:39;100771.88;;;2.29;74.80
30598;BME280;17365;48.878;8.334;2023-01-28T00:04:04;100774.50;;;2.30;75.21
30598;BME280;17365;48.878;8.334;2023-01-28T00:06:30;100775.06;;;2.06;75.45
30598;BME280;17365;48.878;8.334;2023-01-28T00:08:55;100775.56;;;2.36;75.17
30598;BME280;17365;48.878;8.334;2023-01-28T00:11:20;100774.88;;;2.20;74.91
30598;BME280;17365;48.878;8.334;2023-01-28T00:13:52;100775.81;;;2.22;75.70
30598;BME280;17365;48.878;8.334;2023-01-28T00:16:19;100782.75;;;2.25;75.03
30598;BME280;17365;48.878;8.334;2023-01-28T00:18:46;100796.34;;;2.04;75.60
30598;BME280;17365;48.878;8.334;2023-01-28T00:21:13;100785.94;;;2.19;75.15
30598;BME280;17365;48.878;8.334;2023-01-28T00:23:40;100795.03;;;1.95;76.77
30598;BME280;17365;48.878;8.334;2023-01-28T00:26:09;100792.75;;;2.19;75.95
30598;BME280;17365;48.878;8.334;2023-01-28T00:28:35;100789.00;;;2.30;75.53
30598;BME280;17365;48.878;8.334;2023-01-28T00:31:08;100783.94;;;2.31;74.95
30598;BME280;17365;48.878;8.334;2023-01-28T00:33:35;100789.72;;;2.27;75.53
30598;BME280;17365;48.878;8.334;2023-01-28T00:36:01;100793.06;;;2.26;76.17
30598;BME280;17365;48.878;8.334;2023-01-28T00:38:27;100793.66;;;1.84;77.15
30598;BME280;17365;48.878;8.334;2023-01-28T00:40:53;100788.13;;;2.29;75.98
30598;BME280;17365;48.878;8.334;2023-01-28T00:43:19;100787.50;;;1.98;77.06
30598;BME280;17365;48.878;8.334;2023-01-28T00:45:44;100787.50;;;2.16;76.77
30598;BME280;17365;48.878;8.334;2023-01-28T00:48:09;100793.31;;;2.31;75.39
30598;BME280;17365;48.878;8.334;2023-01-28T00:50:34;100791.94;;;2.20;76.23
30598;BME280;17365;48.878;8.334;2023-01-28T00:53:00;100791.47;;;2.28;76.20
30598;BME280;17365;48.878;8.334;2023-01-28T00:55:26;100798.91;;;2.42;75.66
30598;BME280;17365;48.878;8.334;2023-01-28T00:57:52;100795.78;;;2.29;75.76
30598;BME280;17365;48.878;8.334;2023-01-28T01:00:18;100791.00;;;2.37;75.71
30598;BME280;17365;48.878;8.334;2023-01-28T01:02:46;100792.78;;;2.38;75.38
30598;BME280;17365;48.878;8.334;2023-01-28T01:05:11;100789.75;;;2.47;74.38
30598;BME280;17365;48.878;8.334;2023-01-28T01:07:36;100795.25;;;2.37;74.68
30598;BME280;17365;48.878;8.334;2023-01-28T01:10:10;100795.41;;;2.40;74.56
30598;BME280;17365;48.878;8.334;2023-01-28T01:12:36;100792.09;;;2.42;74.57
30598;BME280;17365;48.878;8.334;2023-01-28T01:15:02;100785.00;;;2.37;74.90
30598;BME280;17365;48.878;8.334;2023-01-28T01:17:31;100784.19;;;2.38;74.60
30598;BME280;17365;48.878;8.334;2023-01-28T01:19:56;100782.69;;;2.23;75.28
30598;BME280;17365;48.878;8.334;2023-01-28T01:22:22;100784.34;;;2.41;74.75
30598;BME280;17365;48.878;8.334;2023-01-28T01:24:47;100798.59;;;2.53;73.82
30598;BME280;17365;48.878;8.334;2023-01-28T01:27:12;100788.22;;;2.50;74.24
30598;BME280;17365;48.878;8.334;2023-01-28T01:29:38;100791.34;;;2.45;74.86
30598;BME280;17365;48.878;8.334;2023-01-28T01:32:03;100799.03;;;2.45;74.91
30598;BME280;17365;48.878;8.334;2023-01-28T01:34:29;100796.81;;;2.33;75.44
30598;BME280;17365;48.878;8.334;2023-01-28T01:36:54;100797.47;;;2.48;74.91
30598;BME280;17365;48.878;8.334;2023-01-28T01:39:20;100801.72;;;2.28;75.90
30598;BME280;17365;48.878;8.334;2023-01-28T01:41:45;100808.41;;;2.07;76.93
30598;BME280;17365;48.878;8.334;2023-01-28T01:47:14;100795.94;;;2.32;76.36
30598;BME280;17365;48.878;8.334;2023-01-28T01:49:42;100790.22;;;2.38;75.60
30598;BME280;17365;48.878;8.334;2023-01-28T01:52:10;100795.78;;;2.29;76.49
30598;BME280;17365;48.878;8.334;2023-01-28T01:54:37;100792.16;;;2.44;76.14
30598;BME280;17365;48.878;8.334;2023-01-28T01:57:06;100798.47;;;2.50;75.72
30598;BME280;17365;48.878;8.334;2023-01-28T01:59:34;100793.66;;;2.39;75.66
30598;BME280;17365;48.878;8.334;2023-01-28T02:02:02;100791.63;;;2.31;75.98
30598;BME280;17365;48.878;8.334;2023-01-28T02:04:40;100790.13;;;2.37;76.05
30598;BME280;17365;48.878;8.334;2023-01-28T02:07:08;100787.00;;;2.61;75.45
30598;BME280;17365;48.878;8.334;2023-01-28T02:09:34;100783.47;;;2.40;76.94
30598;BME280;17365;48.878;8.334;2023-01-28T02:12:09;100782.25;;;2.32;76.68
30598;BME280;17365;48.878;8.334;2023-01-28T02:14:38;100784.31;;;2.21;77.47
30598;BME280;17365;48.878;8.334;2023-01-28T02:17:05;100785.63;;;2.13;78.06
30598;BME280;17365;48.878;8.334;2023-01-28T02:19:42;100786.56;;;2.33;76.96
30598;BME280;17365;48.878;8.334;2023-01-28T02:22:36;100790.22;;;2.57;76.57
30598;BME280;17365;48.878;8.334;2023-01-28T02:28:20;100802.09;;;2.55;76.29
30598;BME280;17365;48.878;8.334;2023-01-28T02:34:05;100799.00;;;2.62;75.91
30598;BME280;17365;48.878;8.334;2023-01-28T02:39:20;100810.47;;;2.33;77.82
30598;BME280;17365;48.878;8.334;2023-01-28T02:41:52;100807.16;;;2.36;77.84
30598;BME280;17365;48.878;8.334;2023-01-28T02:44:19;100796.50;;;2.64;76.85
30598;BME280;17365;48.878;8.334;2023-01-28T02:46:44;100800.84;;;2.28;77.40
30598;BME280;17365;48.878;8.334;2023-01-28T02:49:40;100806.84;;;2.28;77.74
30598;BME280;17365;48.878;8.334;2023-01-28T02:55:29;100806.53;;;2.40;76.87
30598;BME280;17365;48.878;8.334;2023-01-28T02:58:19;100815.22;;;2.26;78.09
30598;BME280;17365;48.878;8.334;2023-01-28T03:06:06;100816.88;;;2.61;76.75
30598;BME280;17365;48.878;8.334;2023-01-28T03:08:35;100808.16;;;2.57;76.22
30598;BME280;17365;48.878;8.334;2023-01-28T03:11:22;100807.41;;;2.41;76.33
30598;BME280;17365;48.878;8.334;2023-01-28T03:14:07;100806.75;;;2.64;76.04
30598;BME280;17365;48.878;8.334;2023-01-28T03:16:52;100813.56;;;2.63;75.59
30598;BME280;17365;48.878;8.334;2023-01-28T03:19:37;100804.38;;;2.49;77.08
30598;BME280;17365;48.878;8.334;2023-01-28T03:22:21;100806.59;;;2.42;77.24
30598;BME280;17365;48.878;8.334;2023-01-28T03:25:07;100814.69;;;2.51;77.43
30598;BME280;17365;48.878;8.334;2023-01-28T03:28:03;100812.25;;;2.54;77.24
30598;BME280;17365;48.878;8.334;2023-01-28T03:30:58;100809.72;;;2.73;76.27
30598;BME280;17365;48.878;8.334;2023-01-28T03:33:46;100804.19;;;2.64;77.26
30598;BME280;17365;48.878;8.334;2023-01-28T03:36:30;100807.22;;;2.75;76.76
30598;BME280;17365;48.878;8.334;2023-01-28T03:39:15;100810.97;;;2.83;76.26
30598;BME280;17365;48.878;8.334;2023-01-28T03:41:41;100815.44;;;2.68;76.98
30598;BME280;17365;48.878;8.334;2023-01-28T03:44:07;100818.41;;;2.77;76.47
30598;BME280;17365;48.878;8.334;2023-01-28T03:46:51;100821.56;;;2.71;76.88
30598;BME280;17365;48.878;8.334;2023-01-28T03:49:16;100827.66;;;2.73;76.75
30598;BME280;17365;48.878;8.334;2023-01-28T03:51:42;100829.94;;;2.12;79.34
30598;BME280;17365;48.878;8.334;2023-01-28T03:54:08;100822.38;;;2.51;79.09
30598;BME280;17365;48.878;8.334;2023-01-28T03:56:33;100820.53;;;2.48;78.84
30598;BME280;17365;48.878;8.334;2023-01-28T03:59:05;100830.13;;;2.72;78.08
30598;BME280;17365;48.878;8.334;2023-01-28T04:01:30;100827.66;;;2.73;77.55
30598;BME280;17365;48.878;8.334;2023-01-28T04:03:56;100829.88;;;2.66;78.18
30598;BME280;17365;48.878;8.334;2023-01-28T04:06:21;100826.97;;;2.77;77.49
30598;BME280;17365;48.878;8.334;2023-01-28T04:08:46;100822.53;;;2.73;78.09
30598;BME280;17365;48.878;8.334;2023-01-28T04:11:17;100829.00;;;2.65;78.68
30598;BME280;17365;48.878;8.334;2023-01-28T04:13:45;100828.66;;;2.77;78.34
30598;BME280;17365;48.878;8.334;2023-01-28T04:16:12;100829.44;;;2.56;79.45
30598;BME280;17365;48.878;8.334;2023-01-28T04:18:38;100833.38;;;2.68;79.44
30598;BME280;17365;48.878;8.334;2023-01-28T04:21:04;100832.03;;;2.76;79.38
30598;BME280;17365;48.878;8.334;2023-01-28T04:23:29;100835.13;;;2.88;78.43
30598;BME280;17365;48.878;8.334;2023-01-28T04:25:55;100840.84;;;2.82;78.96
30598;BME280;17365;48.878;8.334;2023-01-28T04:28:20;100845.72;;;2.76;79.87
30598;BME280;17365;48.878;8.334;2023-01-28T04:30:46;100845.91;;;2.81;79.72
30598;BME280;17365;48.878;8.334;2023-01-28T04:33:11;100839.81;;;2.59;80.01
30598;BME280;17365;48.878;8.334;2023-01-28T04:35:37;100840.19;;;2.86;79.72
30598;BME280;17365;48.878;8.334;2023-01-28T04:38:02;100840.31;;;2.89;79.38
30598;BME280;17365;48.878;8.334;2023-01-28T04:40:27;100844.09;;;2.98;78.82
30598;BME280;17365;48.878;8.334;2023-01-28T04:42:53;100841.66;;;3.01;79.08
30598;BME280;17365;48.878;8.334;2023-01-28T04:45:19;100840.13;;;2.85;80.29
30598;BME280;17365;48.878;8.334;2023-01-28T04:47:44;100845.56;;;2.92;79.50
30598;BME280;17365;48.878;8.334;2023-01-28T04:50:09;100848.34;;;2.78;81.05
30598;BME280;17365;48.878;8.334;2023-01-28T04:52:35;100842.28;;;2.95;80.05
30598;BME280;17365;48.878;8.334;2023-01-28T04:55:00;100844.34;;;2.65;82.18
30598;BME280;17365;48.878;8.334;2023-01-28T04:57:27;100847.88;;;2.86;81.00
30598;BME280;17365;48.878;8.334;2023-01-28T04:59:53;100842.19;;;2.93;81.02
30598;BME280;17365;48.878;8.334;2023-01-28T05:02:18;100848.63;;;2.84;80.94
30598;BME280;17365;48.878;8.334;2023-01-28T05:04:43;100845.31;;;2.86;81.21
30598;BME280;17365;48.878;8.334;2023-01-28T05:07:09;100853.06;;;2.88;81.49
30598;BME280;17365;48.878;8.334;2023-01-28T05:09:34;100856.88;;;2.96;80.85
30598;BME280;17365;48.878;8.334;2023-01-28T05:12:00;100861.38;;;3.02;81.04
30598;BME280;17365;48.878;8.334;2023-01-28T05:14:25;100864.50;;;2.95;82.10
30598;BME280;17365;48.878;8.334;2023-01-28T05:16:50;100857.44;;;2.90;82.27
30598;BME280;17365;48.878;8.334;2023-01-28T05:19:16;100861.19;;;2.60;86.30
30598;BME280;17365;48.878;8.334;2023-01-28T05:21:41;100864.09;;;2.68;85.52
30598;BME280;17365;48.878;8.334;2023-01-28T05:24:06;100870.91;;;2.67;85.90
30598;BME280;17365;48.878;8.334;2023-01-28T05:26:31;100867.66;;;2.71;85.41
30598;BME280;17365;48.878;8.334;2023-01-28T05:28:57;100862.03;;;2.23;89.48
30598;BME280;17365;48.878;8.334;2023-01-28T05:31:22;100872.53;;;2.28;90.28
30598;BME280;17365;48.878;8.334;2023-01-28T05:33:47;100862.81;;;2.58;87.23
30598;BME280;17365;48.878;8.334;2023-01-28T05:36:13;100871.94;;;2.16;92.04
30598;BME280;17365;48.878;8.334;2023-01-28T05:38:38;100876.34;;;2.55;88.99
30598;BME280;17365;48.878;8.334;2023-01-28T05:41:03;100871.59;;;2.45;89.72
30598;BME280;17365;48.878;8.334;2023-01-28T05:43:28;100870.50;;;2.58;88.38
30598;BME280;17365;48.878;8.334;2023-01-28T05:45:54;100874.94;;;2.07;91.85
30598;BME280;17365;48.878;8.334;2023-01-28T05:48:19;100877.19;;;2.19;90.99
30598;BME280;17365;48.878;8.334;2023-01-28T05:50:47;100870.06;;;2.49;89.54
30598;BME280;17365;48.878;8.334;2023-01-28T05:53:13;100881.03;;;2.64;88.56
30598;BME280;17365;48.878;8.334;2023-01-28T05:55:38;100877.34;;;2.77;88.04
30598;BME280;17365;48.878;8.334;2023-01-28T05:58:03;100890.50;;;2.29;90.64
30598;BME280;17365;48.878;8.334;2023-01-28T06:00:29;100881.84;;;2.45;90.82
30598;BME280;17365;48.878;8.334;2023-01-28T06:02:54;100900.22;;;2.37;90.98
30598;BME280;17365;48.878;8.334;2023-01-28T06:05:19;100899.19;;;2.51;90.27
30598;BME280;17365;48.878;8.334;2023-01-28T06:07:45;100892.16;;;2.47;90.78
30598;BME280;17365;48.878;8.334;2023-01-28T06:10:11;100895.59;;;2.65;89.04
30598;BME280;17365;48.878;8.334;2023-01-28T06:12:36;100899.41;;;2.38;91.63
30598;BME280;17365;48.878;8.334;2023-01-28T06:15:01;100909.84;;;2.60;89.66
30598;BME280;17365;48.878;8.334;2023-01-28T06:17:27;100912.88;;;2.51;90.87
30598;BME280;17365;48.878;8.334;2023-01-28T06:19:52;100917.06;;;2.49;91.04
30598;BME280;17365;48.878;8.334;2023-01-28T06:22:17;100922.66;;;2.60;90.71
30598;BME280;17365;48.878;8.334;2023-01-28T06:24:43;100913.22;;;2.59;91.35
30598;BME280;17365;48.878;8.334;2023-01-28T06:27:08;100928.44;;;2.56;91.06
30598;BME280;17365;48.878;8.334;2023-01-28T06:29:33;100927.94;;;2.63;91.17
30598;BME280;17365;48.878;8.334;2023-01-28T06:31:59;100935.31;;;2.75;89.74
30598;BME280;17365;48.878;8.334;2023-01-28T06:34:25;100932.38;;;2.14;93.59
30598;BME280;17365;48.878;8.334;2023-01-28T06:36:50;100937.19;;;2.42;93.29
30598;BME280;17365;48.878;8.334;2023-01-28T06:39:17;100946.25;;;2.53;92.26
30598;BME280;17365;48.878;8.334;2023-01-28T06:41:42;100939.06;;;2.46;92.46
30598;BME280;17365;48.878;8.334;2023-01-28T06:44:08;100937.38;;;2.64;92.04
30598;BME280;17365;48.878;8.334;2023-01-28T06:46:33;100940.00;;;2.66;91.24
30598;BME280;17365;48.878;8.334;2023-01-28T06:48:58;100944.31;;;2.67;91.80
30598;BME280;17365;48.878;8.334;2023-01-28T06:51:24;100949.81;;;2.74;91.34
30598;BME280;17365;48.878;8.334;2023-01-28T06:53:49;100944.94;;;2.61;91.78
30598;BME280;17365;48.878;8.334;2023-01-28T06:56:14;100948.63;;;2.68;91.60
30598;BME280;17365;48.878;8.334;2023-01-28T06:58:39;100943.66;;;2.35;94.28
30598;BME280;17365;48.878;8.334;2023-01-28T07:01:05;100954.34;;;2.26;95.02
30598;BME280;17365;48.878;8.334;2023-01-28T07:03:30;100955.00;;;2.04;97.32
30598;BME280;17365;48.878;8.334;2023-01-28T07:05:55;100950.03;;;2.25;95.60
30598;BME280;17365;48.878;8.334;2023-01-28T07:08:20;100948.97;;;2.38;95.65
30598;BME280;17365;48.878;8.334;2023-01-28T07:10:46;100961.13;;;1.74;99.30
30598;BME280;17365;48.878;8.334;2023-01-28T07:13:11;100962.47;;;2.18;98.27
30598;BME280;17365;48.878;8.334;2023-01-28T07:15:37;100968.19;;;2.30;97.45
30598;BME280;17365;48.878;8.334;2023-01-28T07:18:02;100963.59;;;2.41;96.09
30598;BME280;17365;48.878;8.334;2023-01-28T07:20:27;100957.94;;;2.48;95.63
30598;BME280;17365;48.878;8.334;2023-01-28T07:22:53;100967.59;;;2.18;96.46
30598;BME280;17365;48.878;8.334;2023-01-28T07:25:18;100972.41;;;2.47;95.99
30598;BME280;17365;48.878;8.334;2023-01-28T07:27:48;100976.16;;;2.54;95.32
30598;BME280;17365;48.878;8.334;2023-01-28T07:30:14;100972.72;;;2.53;95.62
30598;BME280;17365;48.878;8.334;2023-01-28T07:32:40;100970.94;;;2.70;94.96
30598;BME280;17365;48.878;8.334;2023-01-28T07:35:05;100973.59;;;2.54;95.76
30598;BME280;17365;48.878;8.334;2023-01-28T07:37:31;100973.72;;;2.21;97.38
30598;BME280;17365;48.878;8.334;2023-01-28T07:39:56;100984.06;;;2.41;96.67
30598;BME280;17365;48.878;8.334;2023-01-28T07:42:21;100983.47;;;2.46;96.30
30598;BME280;17365;48.878;8.334;2023-01-28T07:44:47;100986.03;;;2.64;95.25
30598;BME280;17365;48.878;8.334;2023-01-28T07:47:13;100983.97;;;2.57;96.04
30598;BME280;17365;48.878;8.334;2023-01-28T07:49:40;100981.94;;;2.68;95.72
30598;BME280;17365;48.878;8.334;2023-01-28T07:52:06;100981.72;;;2.45;95.82
30598;BME280;17365;48.878;8.334;2023-01-28T07:54:31;100987.28;;;2.54;96.22
30598;BME280;17365;48.878;8.334;2023-01-28T07:56:56;100981.97;;;2.50;97.28
30598;BME280;17365;48.878;8.334;2023-01-28T07:59:22;100995.63;;;2.50;96.82
30598;BME280;17365;48.878;8.334;2023-01-28T08:01:47;100999.22;;;2.54;96.13
30598;BME280;17365;48.878;8.334;2023-01-28T08:04:13;100993.56;;;2.43;97.58
30598;BME280;17365;48.878;8.334;2023-01-28T08:06:38;100990.44;;;2.67;95.55
30598;BME280;17365;48.878;8.334;2023-01-28T08:09:04;100992.03;;;2.65;96.13
30598;BME280;17365;48.878;8.334;2023-01-28T08:11:32;100992.34;;;2.53;96.36
30598;BME280;17365;48.878;8.334;2023-01-28T08:13:57;101000.53;;;2.46;98.11
30598;BME280;17365;48.878;8.334;2023-01-28T08:16:23;101000.53;;;2.63;97.06
30598;BME280;17365;48.878;8.334;2023-01-28T08:18:48;101006.31;;;2.59;96.90
30598;BME280;17365;48.878;8.334;2023-01-28T08:21:13;101017.34;;;2.58;97.26
30598;BME280;17365;48.878;8.334;2023-01-28T08:23:39;101017.00;;;2.69;96.85
30598;BME280;17365;48.878;8.334;2023-01-28T08:26:05;101022.94;;;2.85;95.46
30598;BME280;17365;48.878;8.334;2023-01-28T08:28:30;101018.22;;;2.59;97.78
30598;BME280;17365;48.878;8.334;2023-01-28T08:30:59;101016.56;;;2.77;97.22
30598;BME280;17365;48.878;8.334;2023-01-28T08:33:24;101013.38;;;2.83;97.75
30598;BME280;17365;48.878;8.334;2023-01-28T08:35:49;101012.38;;;2.97;96.95
30598;BME280;17365;48.878;8.334;2023-01-28T08:38:15;101011.81;;;2.85;97.46
30598;BME280;17365;48.878;8.334;2023-01-28T08:40:41;101017.72;;;2.66;98.67
30598;BME280;17365;48.878;8.334;2023-01-28T08:43:07;101019.19;;;2.79;97.65
30598;BME280;17365;48.878;8.334;2023-01-28T08:45:32;101017.31;;;3.12;95.62
30598;BME280;17365;48.878;8.334;2023-01-28T08:48:03;101016.03;;;2.49;97.76
30598;BME280;17365;48.878;8.334;2023-01-28T08:50:31;101022.16;;;3.06;96.87
30598;BME280;17365;48.878;8.334;2023-01-28T08:53:02;101025.84;;;2.40;99.57
30598;BME280;17365;48.878;8.334;2023-01-28T08:55:28;101021.78;;;2.61;99.56
30598;BME280;17365;48.878;8.334;2023-01-28T08:57:54;101023.66;;;2.65;99.29
30598;BME280;17365;48.878;8.334;2023-01-28T09:00:20;101021.06;;;2.83;99.15
30598;BME280;17365;48.878;8.334;2023-01-28T09:02:46;101022.94;;;2.85;98.82
30598;BME280;17365;48.878;8.334;2023-01-28T09:05:11;101026.28;;;3.02;98.38
30598;BME280;17365;48.878;8.334;2023-01-28T09:07:37;101031.03;;;3.12;96.99
30598;BME280;17365;48.878;8.334;2023-01-28T09:10:04;101030.97;;;2.93;97.37
30598;BME280;17365;48.878;8.334;2023-01-28T09:12:30;101023.28;;;2.93;98.24
30598;BME280;17365;48.878;8.334;2023-01-28T09:14:56;101022.59;;;3.15;97.34
30598;BME280;17365;48.878;8.334;2023-01-28T09:17:21;101029.56;;;3.00;97.63
30598;BME280;17365;48.878;8.334;2023-01-28T09:19:47;101040.09;;;3.24;96.61
30598;BME280;17365;48.878;8.334;2023-01-28T09:22:12;101035.78;;;3.05;96.09
30598;BME280;17365;48.878;8.334;2023-01-28T09:24:37;101035.25;;;3.30;95.52
30598;BME280;17365;48.878;8.334;2023-01-28T09:27:02;101035.63;;;3.19;95.59
30598;BME280;17365;48.878;8.334;2023-01-28T09:29:28;101044.13;;;3.18;95.36
30598;BME280;17365;48.878;8.334;2023-01-28T09:31:53;101045.56;;;3.31;95.13
30598;BME280;17365;48.878;8.334;2023-01-28T09:34:19;101047.59;;;3.38;93.91
30598;BME280;17365;48.878;8.334;2023-01-28T09:36:44;101045.56;;;3.31;94.54
30598;BME280;17365;48.878;8.334;2023-01-28T09:39:09;101051.53;;;3.49;92.88
30598;BME280;17365;48.878;8.334;2023-01-28T09:42:12;101053.22;;;3.12;94.04
30598;BME280;17365;48.878;8.334;2023-01-28T09:47:37;101051.53;;;3.49;93.96
30598;BME280;17365;48.878;8.334;2023-01-28T09:50:07;101061.09;;;3.34;93.06
30598;BME280;17365;48.878;8.334;2023-01-28T09:52:38;101054.69;;;3.44;92.62
30598;BME280;17365;48.878;8.334;2023-01-28T09:55:14;101063.34;;;3.46;92.38
30598;BME280;17365;48.878;8.334;2023-01-28T09:57:45;101053.84;;;3.63;91.86
30598;BME280;17365;48.878;8.334;2023-01-28T10:00:14;101053.59;;;3.76;91.06
30598;BME280;17365;48.878;8.334;2023-01-28T10:08:35;101061.13;;;3.54;89.80
30598;BME280;17365;48.878;8.334;2023-01-28T10:11:25;101060.56;;;3.41;91.32
30598;BME280;17365;48.878;8.334;2023-01-28T10:14:14;101056.53;;;3.46;91.27
30598;BME280;17365;48.878;8.334;2023-01-28T10:19:34;101059.28;;;3.51;89.54
30598;BME280;17365;48.878;8.334;2023-01-28T10:22:06;101056.41;;;3.63;90.75
30598;BME280;17365;48.878;8.334;2023-01-28T10:24:36;101049.31;;;3.57;91.21
30598;BME280;17365;48.878;8.334;2023-01-28T10:27:15;101048.38;;;3.74;89.76
30598;BME280;17365;48.878;8.334;2023-01-28T10:29:41;101046.69;;;3.56;90.54
30598;BME280;17365;48.878;8.334;2023-01-28T10:32:28;101044.50;;;3.45;90.58
30598;BME280;17365;48.878;8.334;2023-01-28T10:34:54;101045.06;;;3.58;89.92
30598;BME280;17365;48.878;8.334;2023-01-28T10:37:20;101048.91;;;3.67;89.16
30598;BME280;17365;48.878;8.334;2023-01-28T10:39:46;101042.38;;;3.55;89.39
30598;BME280;17365;48.878;8.334;2023-01-28T10:42:19;101054.09;;;3.49;90.02
30598;BME280;17365;48.878;8.334;2023-01-28T10:44:51;101048.78;;;3.64;89.62
30598;BME280;17365;48.878;8.334;2023-01-28T10:47:26;101048.56;;;3.60;89.47
30598;BME280;17365;48.878;8.334;2023-01-28T10:49:55;101046.06;;;3.61;88.99
30598;BME280;17365;48.878;8.334;2023-01-28T10:52:24;101049.50;;;3.62;88.92
30598;BME280;17365;48.878;8.334;2023-01-28T10:54:58;101060.22;;;3.34;89.16
30598;BME280;17365;48.878;8.334;2023-01-28T10:57:24;101058.22;;;3.28;90.76
30598;BME280;17365;48.878;8.334;2023-01-28T10:59:49;101065.44;;;3.55;89.98
30598;BME280;17365;48.878;8.334;2023-01-28T11:07:29;101072.59;;;3.25;90.43
30598;BME280;17365;48.878;8.334;2023-01-28T11:09:54;101061.66;;;3.46;90.03
30598;BME280;17365;48.878;8.334;2023-01-28T11:12:23;101072.41;;;3.57;88.29
30598;BME280;17365;48.878;8.334;2023-01-28T11:14:57;101055.59;;;3.64;88.18
30598;BME280;17365;48.878;8.334;2023-01-28T11:17:24;101073.41;;;3.61;87.80
30598;BME280;17365;48.878;8.334;2023-01-28T11:19:52;101068.44;;;3.64;86.58
30598;BME280;17365;48.878;8.334;2023-01-28T11:22:23;101054.50;;;3.59;86.77
30598;BME280;17365;48.878;8.334;2023-01-28T11:24:51;101055.41;;;3.78;87.19
30598;BME280;17365;48.878;8.334;2023-01-28T11:27:18;101060.16;;;3.32;87.47
30598;BME280;17365;48.878;8.334;2023-01-28T11:29:56;101054.56;;;3.60;86.80
30598;BME280;17365;48.878;8.334;2023-01-28T11:32:24;101066.66;;;3.43;89.21
30598;BME280;17365;48.878;8.334;2023-01-28T11:34:53;101077.16;;;2.77;93.00
30598;BME280;17365;48.878;8.334;2023-01-28T11:37:23;101070.50;;;2.98;93.59
30598;BME280;17365;48.878;8.334;2023-01-28T11:40:16;101078.19;;;2.80;96.03
30598;BME280;17365;48.878;8.334;2023-01-28T11:42:45;101066.84;;;2.93;96.90
30598;BME280;17365;48.878;8.334;2023-01-28T11:45:19;101070.09;;;3.07;95.97
30598;BME280;17365;48.878;8.334;2023-01-28T11:47:58;101071.38;;;2.81;97.31
30598;BME280;17365;48.878;8.334;2023-01-28T11:53:59;101070.94;;;2.89;96.31
30598;BME280;17365;48.878;8.334;2023-01-28T11:56:48;101065.03;;;3.08;95.88
30598;BME280;17365;48.878;8.334;2023-01-28T12:02:14;101072.84;;;3.11;94.34
30598;BME280;17365;48.878;8.334;2023-01-28T12:13:35;101069.41;;;2.93;94.23
30598;BME280;17365;48.878;8.334;2023-01-28T12:16:21;101070.19;;;3.28;93.77
30598;BME280;17365;48.878;8.334;2023-01-28T12:19:04;101066.84;;;3.29;93.50
30598;BME280;17365;48.878;8.334;2023-01-28T12:24:37;101060.66;;;3.25;92.96
30598;BME280;17365;48.878;8.334;2023-01-28T12:27:39;101061.59;;;3.27;93.15
30598;BME280;17365;48.878;8.334;2023-01-28T12:30:23;101058.88;;;3.42;92.30
30598;BME280;17365;48.878;8.334;2023-01-28T12:35:52;101046.75;;;3.57;90.67
30598;BME280;17365;48.878;8.334;2023-01-28T12:38:35;101051.41;;;3.66;88.76
30598;BME280;17365;48.878;8.334;2023-01-28T12:43:56;101040.13;;;3.82;90.24
30598;BME280;17365;48.878;8.334;2023-01-28T12:46:43;101046.00;;;3.60;89.37
30598;BME280;17365;48.878;8.334;2023-01-28T12:49:24;101039.72;;;3.72;88.34
30598;BME280;17365;48.878;8.334;2023-01-28T12:54:42;101046.25;;;3.46;88.61
30598;BME280;17365;48.878;8.334;2023-01-28T12:57:22;101043.03;;;3.70;87.27
30598;BME280;17365;48.878;8.334;2023-01-28T12:59:51;101041.19;;;4.06;85.81
30598;BME280;17365;48.878;8.334;2023-01-28T13:02:37;101050.03;;;3.35;86.34
30598;BME280;17365;48.878;8.334;2023-01-28T13:05:12;101038.31;;;3.79;86.94
30598;BME280;17365;48.878;8.334;2023-01-28T13:10:11;101032.03;;;3.53;85.01
30598;BME280;17365;48.878;8.334;2023-01-28T13:12:41;101047.03;;;3.63;85.54
30598;BME280;17365;48.878;8.334;2023-01-28T13:15:11;101031.56;;;3.81;85.22
30598;BME280;17365;48.878;8.334;2023-01-28T13:17:38;101038.16;;;3.57;84.66
30598;BME280;17365;48.878;8.334;2023-01-28T13:20:15;101034.53;;;3.71;85.19
30598;BME280;17365;48.878;8.334;2023-01-28T13:22:43;101032.31;;;3.78;83.93
30598;BME280;17365;48.878;8.334;2023-01-28T13:25:21;101040.53;;;3.91;83.32
30598;BME280;17365;48.878;8.334;2023-01-28T13:28:03;101051.97;;;3.78;84.16
30598;BME280;17365;48.878;8.334;2023-01-28T13:30:31;101046.34;;;3.67;83.96
30598;BME280;17365;48.878;8.334;2023-01-28T13:33:05;101046.34;;;3.67;83.50
30598;BME280;17365;48.878;8.334;2023-01-28T13:35:35;101051.00;;;3.57;84.64
30598;BME280;17365;48.878;8.334;2023-01-28T13:38:12;101050.97;;;3.74;84.87
30598;BME280;17365;48.878;8.334;2023-01-28T13:40:40;101049.38;;;3.78;83.82
30598;BME280;17365;48.878;8.334;2023-01-28T13:46:01;101052.38;;;3.87;83.50
30598;BME280;17365;48.878;8.334;2023-01-28T13:48:41;101057.34;;;3.84;83.20
30598;BME280;17365;48.878;8.334;2023-01-28T13:51:17;101066.06;;;3.88;82.98
30598;BME280;17365;48.878;8.334;2023-01-28T13:53:47;101065.72;;;3.61;84.37
30598;BME280;17365;48.878;8.334;2023-01-28T13:56:22;101063.09;;;3.98;83.90
30598;BME280;17365;48.878;8.334;2023-01-28T13:59:20;101077.34;;;3.53;82.88
30598;BME280;17365;48.878;8.334;2023-01-28T14:02:07;101071.06;;;4.04;82.97
30598;BME280;17365;48.878;8.334;2023-01-28T14:05:07;101072.75;;;4.03;81.88
30598;BME280;17365;48.878;8.334;2023-01-28T14:10:42;101075.59;;;3.90;82.03
30598;BME280;17365;48.878;8.334;2023-01-28T14:13:31;101082.69;;;3.76;81.00
30598;BME280;17365;48.878;8.334;2023-01-28T14:16:13;101088.28;;;3.68;80.83
30598;BME280;17365;48.878;8.334;2023-01-28T14:18:43;101084.69;;;3.84;80.95
30598;BME280;17365;48.878;8.334;2023-01-28T14:21:18;101087.19;;;3.82;81.30
30598;BME280;17365;48.878;8.334;2023-01-28T14:23:49;101085.34;;;3.60;81.58
30598;BME280;17365;48.878;8.334;2023-01-28T14:26:37;101101.72;;;3.82;81.34